createdAt,value
2018-07-24T00:02:22.627Z,6.73
2018-07-24T00:04:58.436Z,8.87
2018-07-24T00:07:34.841Z,6.23
2018-07-24T00:10:11.129Z,6.33
2018-07-24T00:12:40.130Z,6.90
2018-07-24T00:15:08.950Z,5.90
2018-07-24T00:17:37.810Z,8.17
2018-07-24T00:20:08.323Z,9.17
2018-07-24T00:22:42.130Z,8.60
2018-07-24T00:25:23.827Z,5.57
2018-07-24T00:27:59.003Z,8.03
2018-07-24T00:30:27.826Z,7.20
2018-07-24T00:32:56.605Z,7.43
2018-07-24T00:35:25.405Z,8.07
2018-07-24T00:37:56.050Z,8.30
2018-07-24T00:40:28.284Z,7.37
2018-07-24T00:42:59.956Z,9.70
2018-07-24T00:45:35.396Z,8.83
2018-07-24T00:48:07.754Z,6.87
2018-07-24T00:50:36.554Z,6.77
2018-07-24T00:53:05.377Z,11.37
2018-07-24T00:55:34.214Z,6.70
2018-07-24T00:58:03.847Z,7.60
2018-07-24T01:00:38.193Z,8.73
2018-07-24T01:03:10.440Z,8.63
2018-07-24T01:05:47.000Z,7.97
2018-07-24T01:08:15.859Z,8.80
2018-07-24T01:10:44.789Z,8.23
2018-07-24T01:13:13.609Z,7.63
2018-07-24T01:15:42.636Z,6.67
2018-07-24T01:18:20.139Z,6.33
2018-07-24T01:20:55.100Z,7.73
2018-07-24T01:23:28.019Z,7.63
2018-07-24T01:25:57.864Z,6.10
2018-07-24T01:28:26.718Z,6.30
2018-07-24T01:30:55.529Z,7.17
2018-07-24T01:36:23.895Z,8.13
2018-07-24T01:38:57.958Z,6.47
2018-07-24T01:41:32.119Z,7.57
2018-07-24T01:44:01.010Z,9.13
2018-07-24T01:46:29.869Z,7.40
2018-07-24T01:48:58.711Z,6.63
2018-07-24T01:51:28.147Z,8.23
2018-07-24T01:53:59.983Z,8.53
2018-07-24T01:56:35.579Z,9.70
2018-07-24T01:59:11.293Z,8.87
2018-07-24T02:01:40.162Z,8.80
2018-07-24T02:04:08.969Z,7.00
2018-07-24T02:06:37.798Z,7.97
2018-07-24T02:09:09.483Z,7.00
2018-07-24T02:11:46.145Z,9.27
2018-07-24T02:14:20.111Z,7.33
2018-07-24T02:16:59.564Z,8.50
2018-07-24T02:19:28.463Z,10.33
2018-07-24T02:21:57.362Z,6.70
2018-07-24T02:24:26.222Z,6.93
2018-07-24T02:26:55.953Z,7.13
2018-07-24T02:29:27.666Z,11.60
2018-07-24T02:31:59.869Z,7.23
2018-07-24T02:34:38.548Z,8.17
2018-07-24T02:37:11.402Z,7.37
2018-07-24T02:39:41.152Z,9.40
2018-07-24T02:42:10.043Z,7.10
2018-07-24T02:44:38.995Z,7.37
2018-07-24T02:47:12.130Z,8.63
2018-07-24T02:49:47.207Z,8.13
2018-07-24T02:52:23.183Z,6.93
2018-07-24T02:54:57.939Z,7.47
2018-07-24T02:57:26.779Z,7.57
2018-07-24T02:59:55.542Z,6.73
2018-07-24T03:02:24.330Z,6.50
2018-07-24T03:04:53.587Z,9.17
2018-07-24T03:07:31.840Z,7.90
2018-07-24T03:10:03.249Z,6.37
2018-07-24T03:12:37.456Z,7.33
2018-07-24T03:15:06.298Z,7.07
2018-07-24T03:17:35.087Z,7.23
2018-07-24T03:20:03.910Z,6.20
2018-07-24T03:22:33.160Z,7.87
2018-07-24T03:25:07.108Z,6.70
2018-07-24T03:27:42.287Z,8.13
2018-07-24T03:32:48.259Z,7.03
2018-07-24T03:35:17.074Z,7.63
2018-07-24T03:37:45.866Z,7.43
2018-07-24T03:40:14.967Z,7.07
2018-07-24T03:42:51.293Z,7.43
2018-07-24T03:45:26.453Z,9.13
2018-07-24T03:47:59.193Z,7.27
2018-07-24T03:50:27.967Z,9.00
2018-07-24T03:52:56.860Z,7.30
2018-07-24T03:55:25.662Z,8.03
2018-07-24T03:57:54.655Z,7.03
2018-07-24T04:00:27.423Z,8.37
2018-07-24T04:02:59.854Z,7.60
2018-07-24T04:05:35.577Z,10.13
2018-07-24T04:08:07.644Z,6.57
2018-07-24T04:10:36.516Z,10.50
2018-07-24T04:13:05.394Z,7.17
2018-07-24T04:15:35.470Z,8.93
2018-07-24T04:18:10.382Z,7.23
2018-07-24T04:20:42.802Z,7.47
2018-07-24T04:23:18.499Z,7.30
2018-07-24T04:25:47.309Z,7.27
2018-07-24T04:28:16.150Z,7.53
2018-07-24T04:30:44.988Z,6.93
2018-07-24T04:33:14.195Z,7.47
2018-07-24T04:35:47.064Z,9.13
2018-07-24T04:38:20.283Z,13.53
2018-07-24T04:40:51.831Z,7.10
2018-07-24T04:43:20.650Z,6.90
2018-07-24T04:45:49.555Z,7.43
2018-07-24T04:48:18.418Z,7.67
2018-07-24T04:50:47.527Z,6.93
2018-07-24T04:53:30.924Z,6.77
2018-07-24T04:56:07.416Z,9.17
2018-07-24T04:58:39.927Z,6.17
2018-07-24T05:01:08.722Z,6.50
2018-07-24T05:03:39.461Z,6.27
2018-07-24T05:06:08.278Z,6.93
2018-07-24T05:08:38.096Z,6.43
2018-07-24T05:11:10.492Z,10.23
2018-07-24T05:13:46.812Z,6.43
2018-07-24T05:16:19.537Z,6.10
2018-07-24T05:18:48.338Z,6.60
2018-07-24T05:21:17.309Z,8.57
2018-07-24T05:23:46.219Z,7.60
2018-07-24T05:35:23.943Z,7.93
2018-07-24T05:37:52.947Z,6.53
2018-07-24T05:40:22.094Z,8.23
2018-07-24T05:51:59.363Z,6.70
2018-07-24T05:54:28.323Z,9.10
2018-07-24T05:56:57.340Z,6.47
2018-07-24T06:11:09.073Z,6.60
2018-07-24T06:13:38.496Z,6.77
2018-07-24T06:25:30.139Z,6.20
2018-07-24T06:27:59.138Z,7.37
2018-07-24T06:30:28.539Z,6.17
2018-07-24T06:44:54.153Z,5.73
2018-07-24T06:47:23.206Z,8.83
2018-07-24T06:49:52.690Z,8.37
2018-07-24T07:01:30.456Z,4.93
2018-07-24T07:03:59.592Z,6.33
2018-07-24T07:06:28.919Z,6.80
2018-07-24T07:18:05.697Z,4.43
2018-07-24T07:20:35.606Z,4.27
2018-07-24T07:23:05.707Z,3.27
2018-07-24T07:34:45.303Z,2.73
2018-07-24T07:37:17.303Z,6.03
2018-07-24T07:39:46.590Z,4.13
2018-07-24T07:54:28.472Z,4.37
2018-07-24T07:56:59.573Z,7.60
2018-07-24T08:08:56.183Z,4.10
2018-07-24T08:11:27.951Z,2.83
2018-07-24T08:14:34.373Z,4.27
2018-07-24T08:26:20.020Z,3.77
2018-07-24T09:02:16.398Z,5.67
2018-07-24T09:04:45.569Z,3.70
2018-07-24T09:07:15.115Z,3.13
2018-07-24T09:18:52.996Z,2.13
2018-07-24T09:21:22.095Z,2.87
2018-07-24T09:23:51.170Z,2.47
2018-07-24T09:35:29.168Z,2.90
2018-07-24T09:37:58.502Z,2.43
2018-07-24T09:40:27.763Z,2.53
2018-07-24T09:52:04.910Z,2.40
2018-07-24T09:54:34.092Z,2.00
2018-07-24T09:57:03.131Z,4.30
2018-07-24T10:08:41.470Z,1.47
2018-07-24T10:11:10.598Z,2.67
2018-07-24T10:13:39.661Z,1.87
2018-07-24T10:25:29.126Z,1.30
2018-07-24T10:27:58.176Z,1.77
2018-07-24T10:30:27.575Z,1.60
2018-07-24T10:44:59.335Z,1.73
2018-07-24T10:47:28.878Z,2.20
2018-07-24T11:02:07.431Z,2.27
2018-07-24T11:04:36.553Z,4.70
2018-07-24T11:19:09.571Z,3.67
2018-07-24T11:21:38.698Z,1.70
2018-07-24T11:24:08.013Z,3.13
2018-07-24T11:35:46.646Z,2.40
2018-07-24T11:38:15.627Z,3.00
2018-07-24T11:40:45.036Z,5.10
2018-07-24T11:52:22.895Z,3.47
2018-07-24T11:54:52.159Z,5.83
2018-07-24T11:57:21.418Z,3.77
2018-07-24T12:09:00.112Z,5.97
2018-07-24T12:11:29.421Z,4.03
2018-07-24T12:13:58.554Z,3.00
2018-07-24T12:25:36.199Z,2.47
2018-07-24T12:28:05.132Z,3.10
2018-07-24T12:30:34.141Z,3.20
2018-07-24T12:42:20.382Z,3.90
2018-07-24T12:44:49.403Z,3.80
2018-07-24T12:47:19.392Z,4.63
2018-07-24T12:49:48.801Z,3.17
2018-07-24T13:01:26.455Z,2.60
2018-07-24T13:03:55.356Z,2.80
2018-07-24T13:06:25.310Z,3.43
2018-07-24T13:18:15.782Z,2.60
2018-07-24T13:20:44.824Z,2.50
2018-07-24T13:23:13.995Z,2.50
2018-07-24T13:34:50.769Z,2.10
2018-07-24T13:37:19.837Z,3.10
2018-07-24T13:39:54.197Z,2.20
2018-07-24T13:51:32.610Z,2.77
2018-07-24T13:54:01.548Z,2.13
2018-07-24T13:56:30.496Z,2.07
2018-07-24T14:08:07.060Z,2.73
2018-07-24T14:10:36.130Z,2.57
2018-07-24T14:13:05.155Z,4.70
2018-07-24T14:25:06.362Z,2.57
2018-07-24T14:44:14.676Z,2.40
2018-07-24T14:46:57.343Z,2.03
2018-07-24T14:49:26.504Z,2.20
2018-07-24T15:01:02.985Z,2.40
2018-07-24T15:03:32.100Z,2.00
2018-07-24T15:06:01.359Z,2.87
2018-07-24T15:17:40.022Z,1.90
2018-07-24T15:20:09.120Z,2.73
2018-07-24T15:22:38.524Z,1.93
2018-07-24T15:37:36.893Z,1.77
2018-07-24T16:32:13.939Z,1.60
2018-07-24T17:57:01.755Z,2.63
2018-07-24T17:59:31.990Z,2.03
2018-07-24T18:13:55.281Z,1.73
2018-07-24T18:16:25.977Z,1.83
2018-07-24T18:18:55.276Z,1.67
2018-07-24T18:30:34.027Z,1.90
2018-07-24T18:33:03.477Z,1.67
2018-07-24T18:35:32.892Z,6.87
2018-07-24T18:50:13.751Z,1.73
2018-07-24T18:52:42.878Z,1.60
2018-07-24T18:55:12.158Z,2.00
2018-07-24T19:06:49.961Z,2.23
2018-07-24T19:09:19.464Z,3.17
2018-07-24T19:11:48.671Z,2.47
2018-07-24T19:23:44.868Z,3.27
2018-07-24T19:26:14.262Z,2.40
2018-07-24T19:28:43.677Z,2.33
2018-07-24T19:46:07.640Z,3.60
2018-07-24T19:48:36.900Z,3.20
2018-07-24T19:51:06.758Z,2.20
2018-07-24T20:03:01.914Z,1.70
2018-07-24T20:05:32.108Z,1.87
2018-07-24T20:08:01.370Z,2.50
2018-07-24T20:10:31.710Z,2.50
2018-07-24T20:22:09.275Z,3.60
2018-07-24T20:24:38.589Z,4.17
2018-07-24T20:27:07.852Z,2.23
2018-07-24T20:39:01.609Z,3.60
2018-07-24T20:41:30.936Z,3.30
2018-07-24T20:44:00.075Z,2.10
2018-07-24T20:46:35.668Z,2.23
2018-07-24T20:58:13.075Z,3.70
2018-07-24T21:00:42.451Z,3.83
2018-07-24T21:03:11.819Z,2.40
2018-07-24T21:14:49.456Z,3.27
2018-07-24T21:17:18.823Z,2.20
2018-07-24T21:19:48.221Z,3.37
2018-07-24T21:31:25.269Z,4.63
2018-07-24T21:33:54.560Z,3.80
2018-07-24T21:36:23.797Z,2.93
2018-07-24T21:48:00.686Z,2.93
2018-07-24T21:50:29.714Z,2.80
2018-07-24T21:52:58.857Z,2.70
2018-07-24T21:55:28.503Z,2.70
2018-07-24T22:07:05.794Z,4.10
2018-07-24T22:09:34.694Z,2.60
2018-07-24T22:12:04.663Z,2.63
2018-07-24T22:23:41.516Z,2.63
2018-07-24T22:26:10.404Z,2.60
2018-07-24T22:28:39.694Z,3.60
2018-07-24T22:40:16.514Z,2.60
2018-07-24T22:42:45.438Z,2.97
2018-07-24T22:45:14.288Z,2.60
2018-07-24T22:47:43.415Z,2.53
2018-07-24T22:50:19.621Z,2.80
2018-07-24T22:52:51.641Z,4.70
2018-07-24T22:55:23.731Z,3.73
2018-07-24T22:57:52.510Z,4.67
2018-07-24T23:00:21.353Z,2.37
2018-07-24T23:02:50.248Z,2.37
2018-07-24T23:05:19.608Z,2.50
2018-07-24T23:07:52.160Z,2.60
2018-07-24T23:10:42.502Z,2.80
2018-07-24T23:13:19.655Z,2.60
2018-07-24T23:15:49.530Z,2.67
2018-07-24T23:18:18.494Z,3.00
2018-07-24T23:20:48.352Z,2.80
2018-07-24T23:23:18.720Z,5.07
2018-07-24T23:25:50.692Z,2.50
2018-07-24T23:28:21.405Z,3.37
2018-07-24T23:30:52.592Z,2.10
2018-07-24T23:33:27.094Z,2.67
2018-07-24T23:35:56.022Z,2.33
2018-07-24T23:38:25.469Z,3.73
2018-07-24T23:40:54.382Z,2.57
2018-07-24T23:43:26.640Z,2.27
2018-07-24T23:46:00.336Z,2.40
2018-07-24T23:48:32.000Z,2.33
2018-07-24T23:51:04.052Z,4.47
2018-07-24T23:53:32.971Z,3.50
2018-07-24T23:56:01.862Z,2.30
2018-07-24T23:58:31.042Z,2.10
